sensor_id;sensor_type;location;lat;lon;timestamp;pressure;altitude;pressure_sealevel;temperature;humidity
60871;BME280;46714;50.118;14.462;2022-12-29T00:01:15;98680.44;;;5.23;78.87
60871;BME280;46714;50.118;14.462;2022-12-29T00:03:40;98674.22;;;5.23;78.82
60871;BME280;46714;50.118;14.462;2022-12-29T00:06:05;98675.22;;;5.22;78.67
60871;BME280;46714;50.118;14.462;2022-12-29T00:08:31;98668.16;;;5.21;78.27
60871;BME280;46714;50.118;14.462;2022-12-29T00:11:06;98670.88;;;5.21;78.54
60871;BME280;46714;50.118;14.462;2022-12-29T00:13:38;98663.78;;;5.20;78.39
60871;BME280;46714;50.118;14.462;2022-12-29T00:16:23;98663.16;;;5.18;78.65
60871;BME280;46714;50.118;14.462;2022-12-29T00:18:49;98653.38;;;5.17;78.49
60871;BME280;46714;50.118;14.462;2022-12-29T00:21:15;98645.47;;;5.15;79.22
60871;BME280;46714;50.118;14.462;2022-12-29T00:24:01;98652.09;;;5.13;79.58
60871;BME280;46714;50.118;14.462;2022-12-29T00:26:47;98641.69;;;5.10;79.01
60871;BME280;46714;50.118;14.462;2022-12-29T00:29:32;98643.09;;;5.06;79.53
60871;BME280;46714;50.118;14.462;2022-12-29T00:32:16;98642.03;;;5.00;80.49
60871;BME280;46714;50.118;14.462;2022-12-29T00:35:00;98646.97;;;4.96;80.06
60871;BME280;46714;50.118;14.462;2022-12-29T00:37:36;98648.19;;;4.94;80.04
60871;BME280;46714;50.118;14.462;2022-12-29T00:40:23;98636.97;;;4.90;80.45
60871;BME280;46714;50.118;14.462;2022-12-29T00:43:07;98626.16;;;4.90;79.82
60871;BME280;46714;50.118;14.462;2022-12-29T00:45:51;98634.25;;;4.90;79.73
60871;BME280;46714;50.118;14.462;2022-12-29T00:48:17;98640.66;;;4.89;80.22
60871;BME280;46714;50.118;14.462;2022-12-29T00:51:05;98629.47;;;4.92;79.45
60871;BME280;46714;50.118;14.462;2022-12-29T00:53:31;98638.88;;;4.96;77.98
60871;BME280;46714;50.118;14.462;2022-12-29T00:55:57;98630.91;;;5.10;77.36
60871;BME280;46714;50.118;14.462;2022-12-29T00:58:22;98635.91;;;5.13;76.70
60871;BME280;46714;50.118;14.462;2022-12-29T01:00:48;98630.59;;;5.19;76.98
60871;BME280;46714;50.118;14.462;2022-12-29T01:03:13;98630.66;;;5.26;76.11
60871;BME280;46714;50.118;14.462;2022-12-29T01:05:39;98621.53;;;5.27;76.63
60871;BME280;46714;50.118;14.462;2022-12-29T01:08:04;98627.56;;;5.29;76.16
60871;BME280;46714;50.118;14.462;2022-12-29T01:10:30;98622.44;;;5.34;75.33
60871;BME280;46714;50.118;14.462;2022-12-29T01:12:55;98632.81;;;5.37;75.63
60871;BME280;46714;50.118;14.462;2022-12-29T01:15:21;98622.84;;;5.38;75.39
60871;BME280;46714;50.118;14.462;2022-12-29T01:17:46;98627.44;;;5.37;75.97
60871;BME280;46714;50.118;14.462;2022-12-29T01:20:12;98625.78;;;5.36;76.00
60871;BME280;46714;50.118;14.462;2022-12-29T01:22:37;98621.19;;;5.37;75.27
60871;BME280;46714;50.118;14.462;2022-12-29T01:25:04;98619.16;;;5.39;75.11
60871;BME280;46714;50.118;14.462;2022-12-29T01:27:30;98625.31;;;5.33;76.36
60871;BME280;46714;50.118;14.462;2022-12-29T01:29:55;98631.09;;;5.30;76.71
60871;BME280;46714;50.118;14.462;2022-12-29T01:32:21;98625.72;;;5.30;76.14
60871;BME280;46714;50.118;14.462;2022-12-29T01:34:47;98622.19;;;5.29;75.60
60871;BME280;46714;50.118;14.462;2022-12-29T01:37:12;98615.34;;;5.33;75.13
60871;BME280;46714;50.118;14.462;2022-12-29T01:39:38;98623.72;;;5.38;74.63
60871;BME280;46714;50.118;14.462;2022-12-29T01:42:03;98611.88;;;5.39;74.20
60871;BME280;46714;50.118;14.462;2022-12-29T01:45:29;98618.09;;;5.40;74.86
60871;BME280;46714;50.118;14.462;2022-12-29T01:47:32;98606.28;;;5.41;74.51
60871;BME280;46714;50.118;14.462;2022-12-29T01:50:02;98603.38;;;5.42;73.27
60871;BME280;46714;50.118;14.462;2022-12-29T01:52:33;98594.69;;;5.47;73.67
60871;BME280;46714;50.118;14.462;2022-12-29T01:55:02;98596.38;;;5.48;73.32
60871;BME280;46714;50.118;14.462;2022-12-29T01:57:31;98598.66;;;5.51;73.14
60871;BME280;46714;50.118;14.462;2022-12-29T02:00:04;98601.38;;;5.51;74.02
60871;BME280;46714;50.118;14.462;2022-12-29T02:02:33;98585.59;;;5.48;74.16
60871;BME280;46714;50.118;14.462;2022-12-29T02:04:59;98589.50;;;5.45;75.10
60871;BME280;46714;50.118;14.462;2022-12-29T02:07:32;98583.84;;;5.40;74.58
60871;BME280;46714;50.118;14.462;2022-12-29T02:09:57;98579.50;;;5.39;74.49
60871;BME280;46714;50.118;14.462;2022-12-29T02:12:25;98588.63;;;5.38;74.95
60871;BME280;46714;50.118;14.462;2022-12-29T02:14:51;98584.66;;;5.34;75.89
60871;BME280;46714;50.118;14.462;2022-12-29T02:23:07;98583.00;;;5.40;73.80
60871;BME280;46714;50.118;14.462;2022-12-29T02:26:13;98589.63;;;5.37;74.67
60871;BME280;46714;50.118;14.462;2022-12-29T02:28:59;98596.25;;;5.35;74.76
60871;BME280;46714;50.118;14.462;2022-12-29T02:31:31;98597.09;;;5.35;73.53
60871;BME280;46714;50.118;14.462;2022-12-29T02:34:10;98589.63;;;5.37;73.08
60871;BME280;46714;50.118;14.462;2022-12-29T02:47:39;98557.50;;;5.42;72.03
60871;BME280;46714;50.118;14.462;2022-12-29T02:50:26;98558.78;;;5.46;71.48
60871;BME280;46714;50.118;14.462;2022-12-29T02:52:58;98558.78;;;5.46;72.47
60871;BME280;46714;50.118;14.462;2022-12-29T02:55:27;98550.69;;;5.46;72.75
60871;BME280;46714;50.118;14.462;2022-12-29T02:58:14;98547.97;;;5.46;72.33
60871;BME280;46714;50.118;14.462;2022-12-29T03:00:45;98551.78;;;5.52;70.95
60871;BME280;46714;50.118;14.462;2022-12-29T03:13:52;98549.53;;;5.62;70.41
60871;BME280;46714;50.118;14.462;2022-12-29T03:16:47;98552.03;;;5.64;70.82
60871;BME280;46714;50.118;14.462;2022-12-29T03:19:26;98540.78;;;5.60;71.57
60871;BME280;46714;50.118;14.462;2022-12-29T03:21:56;98543.69;;;5.59;70.96
60871;BME280;46714;50.118;14.462;2022-12-29T03:24:47;98552.00;;;5.57;72.97
60871;BME280;46714;50.118;14.462;2022-12-29T03:27:27;98543.66;;;5.52;72.08
60871;BME280;46714;50.118;14.462;2022-12-29T03:29:57;98536.34;;;5.46;73.81
60871;BME280;46714;50.118;14.462;2022-12-29T03:32:33;98545.88;;;5.42;73.25
60871;BME280;46714;50.118;14.462;2022-12-29T03:35:03;98547.09;;;5.39;73.94
60871;BME280;46714;50.118;14.462;2022-12-29T03:37:32;98556.25;;;5.38;73.25
60871;BME280;46714;50.118;14.462;2022-12-29T03:40:03;98548.38;;;5.43;70.52
60871;BME280;46714;50.118;14.462;2022-12-29T03:42:29;98562.75;;;5.51;71.49
60871;BME280;46714;50.118;14.462;2022-12-29T03:44:57;98565.03;;;5.54;70.91
60871;BME280;46714;50.118;14.462;2022-12-29T03:47:23;98563.81;;;5.56;71.02
60871;BME280;46714;50.118;14.462;2022-12-29T03:49:49;98556.56;;;5.57;71.67
60871;BME280;46714;50.118;14.462;2022-12-29T03:52:15;98551.56;;;5.54;72.11
60871;BME280;46714;50.118;14.462;2022-12-29T03:54:41;98549.94;;;5.59;70.29
60871;BME280;46714;50.118;14.462;2022-12-29T03:57:06;98547.88;;;5.61;71.15
60871;BME280;46714;50.118;14.462;2022-12-29T03:59:32;98544.59;;;5.66;70.59
60871;BME280;46714;50.118;14.462;2022-12-29T04:01:58;98540.84;;;5.67;71.36
60871;BME280;46714;50.118;14.462;2022-12-29T04:04:23;98544.59;;;5.66;71.45
60871;BME280;46714;50.118;14.462;2022-12-29T04:06:49;98547.94;;;5.68;71.19
60871;BME280;46714;50.118;14.462;2022-12-29T04:09:14;98539.59;;;5.70;70.50
60871;BME280;46714;50.118;14.462;2022-12-29T04:11:39;98541.72;;;5.74;69.93
60871;BME280;46714;50.118;14.462;2022-12-29T04:14:05;98538.00;;;5.75;70.70
60871;BME280;46714;50.118;14.462;2022-12-29T04:16:30;98535.94;;;5.77;70.25
60871;BME280;46714;50.118;14.462;2022-12-29T04:18:56;98523.03;;;5.79;70.46
60871;BME280;46714;50.118;14.462;2022-12-29T04:21:21;98519.31;;;5.80;69.86
60871;BME280;46714;50.118;14.462;2022-12-29T04:23:46;98511.44;;;5.85;69.60
60871;BME280;46714;50.118;14.462;2022-12-29T04:26:12;98505.03;;;5.86;70.12
60871;BME280;46714;50.118;14.462;2022-12-29T04:28:37;98506.69;;;5.87;70.35
60871;BME280;46714;50.118;14.462;2022-12-29T04:31:03;98503.16;;;5.87;70.57
60871;BME280;46714;50.118;14.462;2022-12-29T04:33:29;98515.59;;;5.88;70.43
60871;BME280;46714;50.118;14.462;2022-12-29T04:35:55;98517.91;;;5.91;70.08
60871;BME280;46714;50.118;14.462;2022-12-29T04:38:21;98534.72;;;5.93;70.49
60871;BME280;46714;50.118;14.462;2022-12-29T04:40:47;98523.09;;;5.93;70.91
60871;BME280;46714;50.118;14.462;2022-12-29T04:43:14;98516.88;;;5.92;70.38
60871;BME280;46714;50.118;14.462;2022-12-29T04:45:43;98522.75;;;5.96;69.35
60871;BME280;46714;50.118;14.462;2022-12-29T04:48:09;98514.25;;;5.99;70.74
60871;BME280;46714;50.118;14.462;2022-12-29T04:50:35;98520.47;;;5.99;70.40
60871;BME280;46714;50.118;14.462;2022-12-29T04:53:00;98514.88;;;6.01;70.03
60871;BME280;46714;50.118;14.462;2022-12-29T04:55:26;98511.56;;;6.05;70.93
60871;BME280;46714;50.118;14.462;2022-12-29T04:57:51;98518.44;;;6.08;69.39
60871;BME280;46714;50.118;14.462;2022-12-29T05:00:16;98516.16;;;6.12;70.11
60871;BME280;46714;50.118;14.462;2022-12-29T05:02:42;98519.69;;;6.12;70.70
60871;BME280;46714;50.118;14.462;2022-12-29T05:05:08;98521.16;;;6.15;69.86
60871;BME280;46714;50.118;14.462;2022-12-29T05:07:33;98530.72;;;6.17;70.38
60871;BME280;46714;50.118;14.462;2022-12-29T05:10:00;98529.91;;;6.17;70.71
60871;BME280;46714;50.118;14.462;2022-12-29T05:12:25;98526.16;;;6.18;69.83
60871;BME280;46714;50.118;14.462;2022-12-29T05:14:50;98528.66;;;6.19;70.00
60871;BME280;46714;50.118;14.462;2022-12-29T05:17:16;98514.31;;;6.19;70.40
60871;BME280;46714;50.118;14.462;2022-12-29T05:19:41;98515.34;;;6.18;69.83
60871;BME280;46714;50.118;14.462;2022-12-29T05:22:06;98509.75;;;6.19;69.67
60871;BME280;46714;50.118;14.462;2022-12-29T05:24:32;98511.19;;;6.22;69.85
60871;BME280;46714;50.118;14.462;2022-12-29T05:26:57;98507.25;;;6.24;68.97
60871;BME280;46714;50.118;14.462;2022-12-29T05:29:23;98508.94;;;6.25;69.37
60871;BME280;46714;50.118;14.462;2022-12-29T05:31:48;98506.63;;;6.22;70.53
60871;BME280;46714;50.118;14.462;2022-12-29T05:34:13;98501.22;;;6.22;69.05
60871;BME280;46714;50.118;14.462;2022-12-29T05:36:39;98504.38;;;6.26;68.50
60871;BME280;46714;50.118;14.462;2022-12-29T05:39:04;98502.69;;;6.25;68.95
60871;BME280;46714;50.118;14.462;2022-12-29T05:41:30;98502.50;;;6.26;68.61
60871;BME280;46714;50.118;14.462;2022-12-29T05:43:55;98500.41;;;6.28;67.96
60871;BME280;46714;50.118;14.462;2022-12-29T05:46:21;98494.59;;;6.32;69.19
60871;BME280;46714;50.118;14.462;2022-12-29T05:48:46;98491.88;;;6.32;68.89
60871;BME280;46714;50.118;14.462;2022-12-29T05:51:11;98488.81;;;6.35;68.27
60871;BME280;46714;50.118;14.462;2022-12-29T05:53:37;98489.00;;;6.40;67.24
60871;BME280;46714;50.118;14.462;2022-12-29T05:56:02;98484.63;;;6.45;67.07
60871;BME280;46714;50.118;14.462;2022-12-29T05:58:28;98481.56;;;6.48;68.22
60871;BME280;46714;50.118;14.462;2022-12-29T06:00:53;98479.66;;;6.49;68.02
60871;BME280;46714;50.118;14.462;2022-12-29T06:03:19;98490.06;;;6.52;67.45
60871;BME280;46714;50.118;14.462;2022-12-29T06:05:45;98490.88;;;6.53;67.74
60871;BME280;46714;50.118;14.462;2022-12-29T06:08:11;98491.75;;;6.53;68.12
60871;BME280;46714;50.118;14.462;2022-12-29T06:10:36;98492.78;;;6.52;68.13
60871;BME280;46714;50.118;14.462;2022-12-29T06:13:02;98496.28;;;6.53;67.26
60871;BME280;46714;50.118;14.462;2022-12-29T06:15:28;98492.38;;;6.55;67.14
60871;BME280;46714;50.118;14.462;2022-12-29T06:17:54;98494.03;;;6.56;68.02
60871;BME280;46714;50.118;14.462;2022-12-29T06:20:19;98493.41;;;6.54;68.74
60871;BME280;46714;50.118;14.462;2022-12-29T06:22:45;98497.38;;;6.58;67.45
60871;BME280;46714;50.118;14.462;2022-12-29T06:25:11;98493.41;;;6.61;67.17
60871;BME280;46714;50.118;14.462;2022-12-29T06:27:36;98508.38;;;6.63;67.89
60871;BME280;46714;50.118;14.462;2022-12-29T06:30:02;98502.97;;;6.63;67.65
60871;BME280;46714;50.118;14.462;2022-12-29T06:32:28;98485.09;;;6.62;68.22
60871;BME280;46714;50.118;14.462;2022-12-29T06:34:54;98485.50;;;6.59;67.93
60871;BME280;46714;50.118;14.462;2022-12-29T06:37:19;98492.59;;;6.60;68.70
60871;BME280;46714;50.118;14.462;2022-12-29T06:39:44;98491.97;;;6.58;67.88
60871;BME280;46714;50.118;14.462;2022-12-29T06:42:10;98493.41;;;6.54;68.86
60871;BME280;46714;50.118;14.462;2022-12-29T06:44:35;98495.28;;;6.54;69.17
60871;BME280;46714;50.118;14.462;2022-12-29T06:47:01;98501.69;;;6.53;68.26
60871;BME280;46714;50.118;14.462;2022-12-29T06:49:26;98499.00;;;6.53;68.55
60871;BME280;46714;50.118;14.462;2022-12-29T06:51:51;98507.34;;;6.51;68.53
60871;BME280;46714;50.118;14.462;2022-12-29T06:54:17;98510.03;;;6.51;68.91
60871;BME280;46714;50.118;14.462;2022-12-29T06:56:42;98503.81;;;6.50;68.36
60871;BME280;46714;50.118;14.462;2022-12-29T06:59:08;98504.81;;;6.49;69.55
60871;BME280;46714;50.118;14.462;2022-12-29T07:01:34;98508.78;;;6.47;69.80
60871;BME280;46714;50.118;14.462;2022-12-29T07:04:01;98509.84;;;6.46;69.98
60871;BME280;46714;50.118;14.462;2022-12-29T07:06:27;98507.97;;;6.53;68.16
60871;BME280;46714;50.118;14.462;2022-12-29T07:08:52;98509.19;;;6.57;68.79
60871;BME280;46714;50.118;14.462;2022-12-29T07:11:20;98511.31;;;6.55;70.75
60871;BME280;46714;50.118;14.462;2022-12-29T07:13:46;98513.56;;;6.52;69.94
60871;BME280;46714;50.118;14.462;2022-12-29T07:16:11;98514.00;;;6.48;69.82
60871;BME280;46714;50.118;14.462;2022-12-29T07:18:36;98526.25;;;6.44;70.04
60871;BME280;46714;50.118;14.462;2022-12-29T07:21:02;98526.44;;;6.43;70.37
60871;BME280;46714;50.118;14.462;2022-12-29T07:23:28;98528.72;;;6.39;71.64
60871;BME280;46714;50.118;14.462;2022-12-29T07:26:07;98517.47;;;6.36;71.30
60871;BME280;46714;50.118;14.462;2022-12-29T07:28:35;98518.53;;;6.35;73.53
60871;BME280;46714;50.118;14.462;2022-12-29T07:31:01;98505.84;;;6.35;71.64
60871;BME280;46714;50.118;14.462;2022-12-29T07:33:30;98510.41;;;6.41;70.82
60871;BME280;46714;50.118;14.462;2022-12-29T07:35:55;98506.91;;;6.47;70.23
60871;BME280;46714;50.118;14.462;2022-12-29T07:38:21;98498.81;;;6.54;70.71
60871;BME280;46714;50.118;14.462;2022-12-29T07:40:47;98505.91;;;6.55;70.48
60871;BME280;46714;50.118;14.462;2022-12-29T07:43:12;98508.81;;;6.60;69.55
60871;BME280;46714;50.118;14.462;2022-12-29T07:45:38;98505.06;;;6.68;69.18
60871;BME280;46714;50.118;14.462;2022-12-29T07:48:04;98509.84;;;6.72;69.01
60871;BME280;46714;50.118;14.462;2022-12-29T07:50:32;98510.69;;;6.80;68.26
60871;BME280;46714;50.118;14.462;2022-12-29T07:52:58;98515.28;;;6.86;68.46
60871;BME280;46714;50.118;14.462;2022-12-29T07:55:23;98509.06;;;6.92;67.79
60871;BME280;46714;50.118;14.462;2022-12-29T07:57:49;98508.44;;;6.97;67.44
60871;BME280;46714;50.118;14.462;2022-12-29T08:00:14;98511.97;;;6.97;67.80
60871;BME280;46714;50.118;14.462;2022-12-29T08:02:40;98508.00;;;7.00;67.63
60871;BME280;46714;50.118;14.462;2022-12-29T08:05:05;98515.31;;;6.99;67.75
60871;BME280;46714;50.118;14.462;2022-12-29T08:07:31;98520.47;;;7.01;67.66
60871;BME280;46714;50.118;14.462;2022-12-29T08:09:56;98518.63;;;7.01;67.04
60871;BME280;46714;50.118;14.462;2022-12-29T08:12:22;98525.69;;;7.02;67.15
60871;BME280;46714;50.118;14.462;2022-12-29T08:14:48;98529.22;;;7.03;67.63
60871;BME280;46714;50.118;14.462;2022-12-29T08:17:13;98528.41;;;7.02;67.91
60871;BME280;46714;50.118;14.462;2022-12-29T08:19:38;98520.72;;;6.99;68.27
60871;BME280;46714;50.118;14.462;2022-12-29T08:22:05;98518.84;;;7.00;67.73
60871;BME280;46714;50.118;14.462;2022-12-29T08:24:30;98511.16;;;7.03;67.59
60871;BME280;46714;50.118;14.462;2022-12-29T08:26:55;98505.09;;;7.08;67.74
60871;BME280;46714;50.118;14.462;2022-12-29T08:29:21;98506.56;;;7.10;66.77
60871;BME280;46714;50.118;14.462;2022-12-29T08:31:46;98497.59;;;7.10;68.02
60871;BME280;46714;50.118;14.462;2022-12-29T08:34:12;98506.75;;;7.02;69.28
60871;BME280;46714;50.118;14.462;2022-12-29T08:36:38;98516.75;;;6.95;69.29
60871;BME280;46714;50.118;14.462;2022-12-29T08:39:03;98511.75;;;6.92;69.02
60871;BME280;46714;50.118;14.462;2022-12-29T08:41:29;98519.88;;;6.92;69.57
60871;BME280;46714;50.118;14.462;2022-12-29T08:43:54;98525.91;;;6.94;68.76
60871;BME280;46714;50.118;14.462;2022-12-29T08:46:20;98521.53;;;6.93;70.52
60871;BME280;46714;50.118;14.462;2022-12-29T08:48:45;98520.72;;;6.92;69.67
60871;BME280;46714;50.118;14.462;2022-12-29T08:51:11;98520.47;;;7.01;70.70
60871;BME280;46714;50.118;14.462;2022-12-29T08:53:37;98513.81;;;7.10;69.68
60871;BME280;46714;50.118;14.462;2022-12-29T08:56:03;98515.28;;;7.19;69.22
60871;BME280;46714;50.118;14.462;2022-12-29T08:58:29;98515.50;;;7.31;68.38
60871;BME280;46714;50.118;14.462;2022-12-29T09:00:55;98516.94;;;7.40;67.76
60871;BME280;46714;50.118;14.462;2022-12-29T09:03:22;98516.50;;;7.43;71.13
60871;BME280;46714;50.118;14.462;2022-12-29T09:05:48;98516.50;;;7.43;70.17
60871;BME280;46714;50.118;14.462;2022-12-29T09:08:15;98513.19;;;7.41;70.08
60871;BME280;46714;50.118;14.462;2022-12-29T09:10:41;98513.81;;;7.43;69.63
60871;BME280;46714;50.118;14.462;2022-12-29T09:13:06;98528.81;;;7.46;69.03
60871;BME280;46714;50.118;14.462;2022-12-29T09:15:31;98520.03;;;7.50;69.03
60871;BME280;46714;50.118;14.462;2022-12-29T09:17:57;98527.09;;;7.58;68.71
60871;BME280;46714;50.118;14.462;2022-12-29T09:20:22;98525.25;;;7.65;67.93
60871;BME280;46714;50.118;14.462;2022-12-29T09:22:48;98528.16;;;7.64;69.14
60871;BME280;46714;50.118;14.462;2022-12-29T09:25:14;98529.41;;;7.68;68.44
60871;BME280;46714;50.118;14.462;2022-12-29T09:27:39;98526.06;;;7.72;67.96
60871;BME280;46714;50.118;14.462;2022-12-29T09:30:06;98522.09;;;7.75;69.62
60871;BME280;46714;50.118;14.462;2022-12-29T09:32:33;98523.72;;;7.76;69.47
60871;BME280;46714;50.118;14.462;2022-12-29T09:34:59;98522.91;;;7.75;71.83
60871;BME280;46714;50.118;14.462;2022-12-29T09:37:24;98517.91;;;7.72;71.51
60871;BME280;46714;50.118;14.462;2022-12-29T09:39:50;98533.13;;;7.73;69.74
60871;BME280;46714;50.118;14.462;2022-12-29T09:47:34;98518.47;;;7.94;68.71
60871;BME280;46714;50.118;14.462;2022-12-29T09:53:13;98508.19;;;8.10;68.50
60871;BME280;46714;50.118;14.462;2022-12-29T09:55:56;98505.03;;;8.13;69.60
60871;BME280;46714;50.118;14.462;2022-12-29T09:58:27;98506.09;;;8.18;68.35
60871;BME280;46714;50.118;14.462;2022-12-29T10:01:01;98502.28;;;8.26;68.76
60871;BME280;46714;50.118;14.462;2022-12-29T10:03:40;98492.47;;;8.32;68.23
60871;BME280;46714;50.118;14.462;2022-12-29T10:06:17;98488.03;;;8.37;67.62
60871;BME280;46714;50.118;14.462;2022-12-29T10:09:19;98481.78;;;8.44;68.64
60871;BME280;46714;50.118;14.462;2022-12-29T10:12:08;98476.75;;;8.47;67.41
60871;BME280;46714;50.118;14.462;2022-12-29T10:25:12;98467.31;;;8.81;66.43
60871;BME280;46714;50.118;14.462;2022-12-29T10:27:42;98473.31;;;8.90;66.96
60871;BME280;46714;50.118;14.462;2022-12-29T10:30:12;98456.34;;;8.95;67.50
60871;BME280;46714;50.118;14.462;2022-12-29T10:32:40;98460.09;;;9.00;67.68
60871;BME280;46714;50.118;14.462;2022-12-29T10:35:20;98454.00;;;9.05;67.06
60871;BME280;46714;50.118;14.462;2022-12-29T10:42:57;98453.94;;;9.12;67.48
60871;BME280;46714;50.118;14.462;2022-12-29T10:45:23;98446.56;;;9.19;67.78
60871;BME280;46714;50.118;14.462;2022-12-29T10:50:36;98432.75;;;9.39;66.21
60871;BME280;46714;50.118;14.462;2022-12-29T10:53:07;98419.03;;;9.52;65.22
60871;BME280;46714;50.118;14.462;2022-12-29T10:55:44;98420.78;;;9.65;64.74
60871;BME280;46714;50.118;14.462;2022-12-29T10:58:11;98414.84;;;9.86;64.68
60871;BME280;46714;50.118;14.462;2022-12-29T11:00:38;98400.88;;;10.01;63.36
60871;BME280;46714;50.118;14.462;2022-12-29T11:06:25;98391.09;;;10.42;61.29
60871;BME280;46714;50.118;14.462;2022-12-29T11:08:53;98392.06;;;10.60;60.75
60871;BME280;46714;50.118;14.462;2022-12-29T11:11:23;98386.03;;;10.69;60.04
60871;BME280;46714;50.118;14.462;2022-12-29T11:13:58;98383.69;;;10.85;58.98
60871;BME280;46714;50.118;14.462;2022-12-29T11:16:33;98382.28;;;10.94;59.14
60871;BME280;46714;50.118;14.462;2022-12-29T11:18:59;98381.56;;;10.99;59.27
60871;BME280;46714;50.118;14.462;2022-12-29T11:21:38;98379.09;;;10.97;60.09
60871;BME280;46714;50.118;14.462;2022-12-29T11:24:28;98371.88;;;10.91;60.43
60871;BME280;46714;50.118;14.462;2022-12-29T11:26:54;98378.97;;;10.92;60.37
60871;BME280;46714;50.118;14.462;2022-12-29T11:29:36;98371.38;;;10.94;59.74
60871;BME280;46714;50.118;14.462;2022-12-29T11:34:58;98362.28;;;11.12;59.30
60871;BME280;46714;50.118;14.462;2022-12-29T11:42:40;98368.03;;;11.39;58.24
60871;BME280;46714;50.118;14.462;2022-12-29T11:45:20;98363.53;;;11.45;57.46
60871;BME280;46714;50.118;14.462;2022-12-29T11:50:41;98378.19;;;11.56;57.75
60871;BME280;46714;50.118;14.462;2022-12-29T11:53:17;98382.69;;;11.62;57.32
60871;BME280;46714;50.118;14.462;2022-12-29T11:55:55;98374.25;;;11.63;57.64
60871;BME280;46714;50.118;14.462;2022-12-29T11:58:36;98380.31;;;11.65;57.62
60871;BME280;46714;50.118;14.462;2022-12-29T12:03:35;98378.25;;;11.72;57.75
60871;BME280;46714;50.118;14.462;2022-12-29T12:06:05;98370.94;;;11.73;57.61
60871;BME280;46714;50.118;14.462;2022-12-29T12:16:33;98383.44;;;11.86;58.29
60871;BME280;46714;50.118;14.462;2022-12-29T12:21:59;98383.94;;;11.83;57.65
60871;BME280;46714;50.118;14.462;2022-12-29T12:27:51;98383.13;;;11.82;57.81
60871;BME280;46714;50.118;14.462;2022-12-29T12:30:23;98379.53;;;11.82;57.77
60871;BME280;46714;50.118;14.462;2022-12-29T12:33:03;98381.69;;;11.80;57.80
60871;BME280;46714;50.118;14.462;2022-12-29T13:00:58;98365.59;;;11.14;62.46
60871;BME280;46714;50.118;14.462;2022-12-29T13:06:46;98346.63;;;11.19;61.97
60871;BME280;46714;50.118;14.462;2022-12-29T13:12:30;98356.47;;;11.08;62.86
60871;BME280;46714;50.118;14.462;2022-12-29T13:23:05;98364.75;;;11.25;61.21
60871;BME280;46714;50.118;14.462;2022-12-29T13:28:42;98358.56;;;11.42;61.17
60871;BME280;46714;50.118;14.462;2022-12-29T13:31:20;98363.06;;;11.48;61.00
60871;BME280;46714;50.118;14.462;2022-12-29T13:36:43;98359.34;;;11.54;61.13
60871;BME280;46714;50.118;14.462;2022-12-29T13:39:31;98377.97;;;11.57;60.38
60871;BME280;46714;50.118;14.462;2022-12-29T13:42:00;98369.06;;;11.62;60.23
60871;BME280;46714;50.118;14.462;2022-12-29T13:44:29;98374.84;;;11.65;60.53
60871;BME280;46714;50.118;14.462;2022-12-29T13:46:56;98375.22;;;11.69;59.92
60871;BME280;46714;50.118;14.462;2022-12-29T13:49:26;98375.22;;;11.69;59.96
60871;BME280;46714;50.118;14.462;2022-12-29T13:51:54;98372.25;;;11.70;59.96
60871;BME280;46714;50.118;14.462;2022-12-29T13:57:11;98371.53;;;11.75;59.19
60871;BME280;46714;50.118;14.462;2022-12-29T14:00:13;98377.31;;;11.79;59.20
60871;BME280;46714;50.118;14.462;2022-12-29T14:05:31;98382.75;;;11.79;59.46
60871;BME280;46714;50.118;14.462;2022-12-29T14:07:57;98394.75;;;11.78;59.03
60871;BME280;46714;50.118;14.462;2022-12-29T14:13:22;98383.84;;;11.78;59.03
60871;BME280;46714;50.118;14.462;2022-12-29T14:15:51;98391.44;;;11.76;59.20
60871;BME280;46714;50.118;14.462;2022-12-29T14:18:28;98386.56;;;11.78;58.49
60871;BME280;46714;50.118;14.462;2022-12-29T14:21:00;98394.75;;;11.78;59.04
60871;BME280;46714;50.118;14.462;2022-12-29T14:23:40;98392.03;;;11.78;58.95
60871;BME280;46714;50.118;14.462;2022-12-29T14:36:34;98398.47;;;11.60;60.25
60871;BME280;46714;50.118;14.462;2022-12-29T14:44:45;98400.72;;;11.51;60.06
60871;BME280;46714;50.118;14.462;2022-12-29T14:52:59;98409.25;;;11.43;60.17
60871;BME280;46714;50.118;14.462;2022-12-29T14:58:13;98405.00;;;11.35;59.92
60871;BME280;46714;50.118;14.462;2022-12-29T15:00:40;98403.81;;;11.31;59.93
60871;BME280;46714;50.118;14.462;2022-12-29T15:05:49;98419.84;;;11.27;60.00
60871;BME280;46714;50.118;14.462;2022-12-29T15:08:18;98426.00;;;11.23;59.81
60871;BME280;46714;50.118;14.462;2022-12-29T15:10:49;98430.84;;;11.21;60.83
60871;BME280;46714;50.118;14.462;2022-12-29T15:13:36;98430.47;;;11.17;60.64
60871;BME280;46714;50.118;14.462;2022-12-29T15:16:04;98416.75;;;11.12;60.76
60871;BME280;46714;50.118;14.462;2022-12-29T15:18:45;98419.97;;;11.09;60.64
60871;BME280;46714;50.118;14.462;2022-12-29T15:21:11;98423.13;;;11.06;61.15
60871;BME280;46714;50.118;14.462;2022-12-29T15:23:38;98423.03;;;11.01;60.99
60871;BME280;46714;50.118;14.462;2022-12-29T15:26:05;98426.22;;;10.98;61.10
60871;BME280;46714;50.118;14.462;2022-12-29T15:31:04;98431.41;;;10.87;61.86
60871;BME280;46714;50.118;14.462;2022-12-29T15:33:31;98432.38;;;10.81;61.79
60871;BME280;46714;50.118;14.462;2022-12-29T15:36:02;98432.22;;;10.76;62.54
60871;BME280;46714;50.118;14.462;2022-12-29T15:38:29;98429.38;;;10.71;62.73
60871;BME280;46714;50.118;14.462;2022-12-29T15:40:59;98431.75;;;10.67;62.96
60871;BME280;46714;50.118;14.462;2022-12-29T15:43:39;98433.63;;;10.67;62.81
60871;BME280;46714;50.118;14.462;2022-12-29T15:46:18;98441.44;;;10.63;63.10
60871;BME280;46714;50.118;14.462;2022-12-29T15:48:44;98431.25;;;10.59;63.33
60871;BME280;46714;50.118;14.462;2022-12-29T15:51:18;98444.03;;;10.58;63.41
60871;BME280;46714;50.118;14.462;2022-12-29T15:53:46;98445.56;;;10.54;63.14
60871;BME280;46714;50.118;14.462;2022-12-29T15:56:14;98442.09;;;10.47;63.74
60871;BME280;46714;50.118;14.462;2022-12-29T15:58:43;98449.28;;;10.41;63.59